createdAt,value
2017-11-28T00:01:30.144Z,1.40
2017-11-28T00:03:57.532Z,1.40
2017-11-28T00:06:24.942Z,1.75
2017-11-28T00:08:52.293Z,1.10
2017-11-28T00:11:19.706Z,1.50
2017-11-28T00:13:47.142Z,1.70
2017-11-28T00:16:14.491Z,1.40
2017-11-28T00:18:41.918Z,1.30
2017-11-28T00:21:09.331Z,1.07
2017-11-28T00:23:36.681Z,1.05
2017-11-28T00:26:04.092Z,1.55
2017-11-28T00:28:31.441Z,1.85
2017-11-28T00:30:58.823Z,1.80
2017-11-28T00:33:26.218Z,1.95
2017-11-28T00:35:53.569Z,1.50
2017-11-28T00:38:20.952Z,1.35
2017-11-28T00:40:48.511Z,1.30
2017-11-28T00:43:15.871Z,1.55
2017-11-28T00:45:43.213Z,0.70
2017-11-28T00:48:10.648Z,2.00
2017-11-28T00:50:38.263Z,1.75
2017-11-28T00:53:05.723Z,1.45
2017-11-28T00:55:33.085Z,1.40
2017-11-28T00:58:00.441Z,1.40
2017-11-28T01:00:27.898Z,1.37
2017-11-28T01:02:55.305Z,1.70
2017-11-28T01:05:22.735Z,1.50
2017-11-28T01:07:50.140Z,1.45
2017-11-28T01:10:17.538Z,1.25
2017-11-28T01:12:44.931Z,1.60
2017-11-28T01:15:12.303Z,1.40
2017-11-28T01:17:39.997Z,1.65
2017-11-28T01:20:07.417Z,1.17
2017-11-28T01:22:35.113Z,1.50
2017-11-28T01:25:02.453Z,1.45
2017-11-28T01:27:29.868Z,1.40
2017-11-28T01:29:57.279Z,1.33
2017-11-28T01:32:24.711Z,0.95
2017-11-28T01:34:52.051Z,1.50
2017-11-28T01:37:19.540Z,1.35
2017-11-28T01:39:47.045Z,1.27
2017-11-28T01:42:14.451Z,1.27
2017-11-28T01:44:41.861Z,1.30
2017-11-28T01:47:09.491Z,1.30
2017-11-28T01:49:36.893Z,1.80
2017-11-28T01:52:04.276Z,1.75
2017-11-28T01:54:31.660Z,1.40
2017-11-28T01:56:59.317Z,1.40
2017-11-28T01:59:28.241Z,1.33
2017-11-28T02:01:55.636Z,1.60
2017-11-28T02:04:22.983Z,1.60
2017-11-28T02:06:50.353Z,1.45
2017-11-28T02:09:17.857Z,1.40
2017-11-28T02:11:45.251Z,1.87
2017-11-28T02:14:12.695Z,1.10
2017-11-28T02:16:40.179Z,1.63
2017-11-28T02:19:07.564Z,1.50
2017-11-28T02:21:34.991Z,1.40
2017-11-28T02:24:02.486Z,1.65
2017-11-28T02:26:30.173Z,1.50
2017-11-28T02:28:57.570Z,1.65
2017-11-28T02:31:24.982Z,1.50
2017-11-28T02:33:52.388Z,1.45
2017-11-28T02:36:19.793Z,1.37
2017-11-28T02:38:47.178Z,1.55
2017-11-28T02:41:14.564Z,1.25
2017-11-28T02:43:41.975Z,1.90
2017-11-28T02:46:09.358Z,1.55
2017-11-28T02:48:36.811Z,1.60
2017-11-28T02:51:04.222Z,1.80
2017-11-28T02:53:31.628Z,1.70
2017-11-28T02:55:59.066Z,1.60
2017-11-28T02:58:26.480Z,1.40
2017-11-28T03:00:53.872Z,1.30
2017-11-28T03:03:21.358Z,1.45
2017-11-28T03:05:48.805Z,1.73
2017-11-28T03:08:16.178Z,1.63
2017-11-28T03:10:43.629Z,1.90
2017-11-28T03:13:11.010Z,1.37
2017-11-28T03:15:38.398Z,1.20
2017-11-28T03:18:05.800Z,1.60
2017-11-28T03:20:33.182Z,1.50
2017-11-28T03:23:00.658Z,1.30
2017-11-28T03:25:28.068Z,1.40
2017-11-28T03:27:55.436Z,1.30
2017-11-28T03:30:22.829Z,1.65
2017-11-28T03:32:50.208Z,1.40
2017-11-28T03:35:17.625Z,1.85
2017-11-28T03:37:45.060Z,1.70
2017-11-28T03:40:12.442Z,1.40
2017-11-28T03:42:39.930Z,1.70
2017-11-28T03:45:07.344Z,1.33
2017-11-28T03:47:34.845Z,1.65
2017-11-28T03:50:02.224Z,1.25
2017-11-28T03:52:29.611Z,1.50
2017-11-28T03:54:57.100Z,1.60
2017-11-28T03:57:24.461Z,1.47
2017-11-28T03:59:51.838Z,1.50
2017-11-28T04:02:19.289Z,1.10
2017-11-28T04:04:46.771Z,1.00
2017-11-28T04:07:14.181Z,1.47
2017-11-28T04:09:41.605Z,1.37
2017-11-28T04:12:09.009Z,1.80
2017-11-28T04:14:36.418Z,1.50
2017-11-28T04:17:03.869Z,9.80
2017-11-28T04:19:31.254Z,5.30
2017-11-28T04:21:58.689Z,10.17
2017-11-28T04:24:26.063Z,7.27
2017-11-28T04:26:53.476Z,9.50
2017-11-28T04:29:21.155Z,6.90
2017-11-28T04:31:48.619Z,12.00
2017-11-28T04:34:16.028Z,1.93
2017-11-28T04:36:43.486Z,54.90
2017-11-28T04:39:10.923Z,88.70
2017-11-28T04:41:38.351Z,23.25
2017-11-28T04:44:05.831Z,4.60
2017-11-28T04:46:33.277Z,4.50
2017-11-28T04:49:00.743Z,7.40
2017-11-28T04:51:28.208Z,3.60
2017-11-28T04:53:55.568Z,8.40
2017-11-28T04:56:23.042Z,4.70
2017-11-28T04:58:50.484Z,11.90
2017-11-28T05:01:17.976Z,9.20
2017-11-28T05:03:45.431Z,9.43
2017-11-28T05:06:12.853Z,5.33
2017-11-28T05:08:40.226Z,10.45
2017-11-28T05:11:07.876Z,8.60
2017-11-28T05:13:35.269Z,16.20
2017-11-28T05:16:02.660Z,17.10
2017-11-28T05:18:30.125Z,20.10
2017-11-28T05:20:57.541Z,20.13
2017-11-28T05:23:25.056Z,36.10
2017-11-28T05:25:52.521Z,39.67
2017-11-28T05:28:20.024Z,28.30
2017-11-28T05:30:47.500Z,18.67
2017-11-28T05:33:15.013Z,16.00
2017-11-28T05:35:42.434Z,20.25
2017-11-28T05:38:09.924Z,24.83
2017-11-28T05:40:37.390Z,9.63
2017-11-28T05:43:04.780Z,22.57
2017-11-28T05:45:32.214Z,4.15
2017-11-28T05:47:59.663Z,18.37
2017-11-28T05:50:27.099Z,18.63
2017-11-28T05:52:54.643Z,19.90
2017-11-28T05:55:22.120Z,15.00
2017-11-28T05:57:49.695Z,10.25
2017-11-28T06:00:17.285Z,13.03
2017-11-28T06:02:45.573Z,22.60
2017-11-28T06:05:13.008Z,14.35
2017-11-28T06:07:40.507Z,6.70
2017-11-28T06:10:08.072Z,13.73
2017-11-28T06:12:35.532Z,11.33
2017-11-28T06:15:02.948Z,4.90
2017-11-28T06:17:30.424Z,13.90
2017-11-28T06:19:57.878Z,16.90
2017-11-28T06:22:25.307Z,6.20
2017-11-28T06:24:52.773Z,4.20
2017-11-28T06:27:20.166Z,9.90
2017-11-28T06:29:47.699Z,2.60
2017-11-28T06:32:15.447Z,4.60
2017-11-28T06:34:43.002Z,2.07
2017-11-28T06:37:10.607Z,3.87
2017-11-28T06:39:38.104Z,4.50
2017-11-28T06:42:05.545Z,5.70
2017-11-28T06:44:33.044Z,2.40
2017-11-28T06:47:00.553Z,3.80
2017-11-28T06:49:28.118Z,2.67
2017-11-28T06:51:55.775Z,2.37
2017-11-28T06:54:23.288Z,6.35
2017-11-28T06:56:50.901Z,3.40
2017-11-28T06:59:18.908Z,1.95
2017-11-28T07:01:46.513Z,4.30
2017-11-28T07:04:14.008Z,2.37
2017-11-28T07:06:41.740Z,7.37
2017-11-28T07:09:09.333Z,3.03
2017-11-28T07:11:36.835Z,3.80
2017-11-28T07:14:04.357Z,3.35
2017-11-28T07:16:31.873Z,1.70
2017-11-28T07:18:59.441Z,2.05
2017-11-28T07:21:27.012Z,3.55
2017-11-28T07:23:56.356Z,2.47
2017-11-28T07:26:23.827Z,1.70
2017-11-28T07:28:51.229Z,2.87
2017-11-28T07:31:18.831Z,3.10
2017-11-28T07:33:46.289Z,5.90
2017-11-28T07:36:13.700Z,6.33
2017-11-28T07:38:41.177Z,2.00
2017-11-28T07:41:08.686Z,2.40
2017-11-28T07:43:36.072Z,2.53
2017-11-28T07:46:03.542Z,2.00
2017-11-28T07:48:40.300Z,2.10
2017-11-28T07:51:07.754Z,2.00
2017-11-28T07:53:35.270Z,2.20
2017-11-28T07:56:02.880Z,3.50
2017-11-28T07:58:32.164Z,2.70
2017-11-28T08:01:00.118Z,2.65
2017-11-28T08:03:28.370Z,2.80
2017-11-28T08:05:57.202Z,3.40
2017-11-28T08:08:24.808Z,2.65
2017-11-28T08:10:52.278Z,6.80
2017-11-28T08:13:20.784Z,2.40
2017-11-28T08:15:48.617Z,3.65
2017-11-28T08:18:16.665Z,3.07
2017-11-28T08:20:44.200Z,2.70
2017-11-28T08:23:11.991Z,2.67
2017-11-28T08:25:39.766Z,2.90
2017-11-28T08:28:07.324Z,7.00
2017-11-28T08:30:34.971Z,5.47
2017-11-28T08:33:03.024Z,2.50
2017-11-28T08:35:32.677Z,4.03
2017-11-28T08:38:00.916Z,2.70
2017-11-28T08:40:28.392Z,2.65
2017-11-28T08:42:55.855Z,2.55
2017-11-28T08:45:24.022Z,7.73
2017-11-28T08:50:27.491Z,2.43
2017-11-28T08:52:55.987Z,3.20
2017-11-28T08:55:23.454Z,2.25
2017-11-28T08:57:50.989Z,10.70
2017-11-28T09:00:18.646Z,2.20
2017-11-28T09:02:46.410Z,3.85
2017-11-28T09:05:14.067Z,2.33
2017-11-28T09:07:41.741Z,3.30
2017-11-28T09:10:10.114Z,3.00
2017-11-28T09:12:37.590Z,2.85
2017-11-28T09:15:05.671Z,2.50
2017-11-28T09:17:33.152Z,2.47
2017-11-28T09:20:00.609Z,2.95
2017-11-28T09:22:28.075Z,2.20
2017-11-28T09:24:55.507Z,3.70
2017-11-28T09:27:23.037Z,4.43
2017-11-28T09:29:50.548Z,2.37
2017-11-28T09:32:18.661Z,2.70
2017-11-28T09:34:46.858Z,3.53
2017-11-28T09:37:14.379Z,3.20
2017-11-28T09:39:42.223Z,4.17
2017-11-28T09:42:09.782Z,3.80
2017-11-28T09:44:37.363Z,3.30
2017-11-28T09:47:05.954Z,3.00
2017-11-28T09:49:34.224Z,3.83
2017-11-28T09:52:01.645Z,5.03
2017-11-28T09:54:30.855Z,2.90
2017-11-28T09:56:58.633Z,6.10
2017-11-28T09:59:26.008Z,8.90
2017-11-28T10:01:53.492Z,5.80
2017-11-28T10:04:20.984Z,2.90
2017-11-28T10:06:48.424Z,2.83
2017-11-28T10:09:15.869Z,2.87
2017-11-28T10:11:43.386Z,3.47
2017-11-28T10:14:10.948Z,3.45
2017-11-28T10:16:38.441Z,2.40
2017-11-28T10:19:06.696Z,5.90
2017-11-28T10:21:34.181Z,2.80
2017-11-28T10:24:01.811Z,8.15
2017-11-28T10:26:29.375Z,2.70
2017-11-28T10:28:56.809Z,4.70
2017-11-28T10:31:24.263Z,4.40
2017-11-28T10:33:51.739Z,2.70
2017-11-28T10:36:19.233Z,2.40
2017-11-28T10:38:47.926Z,2.47
2017-11-28T10:41:15.311Z,2.90
2017-11-28T10:43:42.819Z,3.00
2017-11-28T10:46:10.303Z,3.20
2017-11-28T10:48:37.737Z,2.60
2017-11-28T10:53:51.953Z,2.87
2017-11-28T10:56:19.407Z,3.57
2017-11-28T10:58:47.120Z,3.30
2017-11-28T11:01:15.377Z,9.40
2017-11-28T11:03:48.242Z,5.90
2017-11-28T11:06:23.133Z,4.75
2017-11-28T11:08:50.996Z,8.10
2017-11-28T11:11:18.733Z,3.70
2017-11-28T11:13:46.915Z,3.97
2017-11-28T11:16:14.869Z,3.05
2017-11-28T11:18:43.209Z,3.03
2017-11-28T11:21:10.840Z,3.20
2017-11-28T11:23:38.357Z,2.90
2017-11-28T11:26:07.438Z,3.30
2017-11-28T11:28:39.117Z,3.20
2017-11-28T11:31:13.016Z,3.27
2017-11-28T11:33:40.528Z,3.05
2017-11-28T11:36:08.416Z,4.20
2017-11-28T11:38:35.863Z,3.05
2017-11-28T11:43:42.368Z,3.00
2017-11-28T11:46:11.547Z,3.30
2017-11-28T11:48:39.078Z,3.60
2017-11-28T11:51:08.583Z,3.57
2017-11-28T11:53:36.083Z,3.35
2017-11-28T11:56:06.112Z,4.55
2017-11-28T11:58:35.166Z,3.40
2017-11-28T12:01:08.066Z,4.20
2017-11-28T12:03:35.967Z,3.83
2017-11-28T12:06:03.600Z,3.30
2017-11-28T12:08:31.306Z,3.90
2017-11-28T12:10:58.762Z,3.23
2017-11-28T12:13:26.405Z,2.80
2017-11-28T12:15:53.883Z,7.13
2017-11-28T12:18:21.447Z,3.33
2017-11-28T12:20:49.160Z,3.20
2017-11-28T12:23:16.698Z,8.90
2017-11-28T12:25:45.036Z,4.25
2017-11-28T12:28:12.795Z,3.50
2017-11-28T12:30:40.221Z,4.07
2017-11-28T12:33:07.760Z,4.33
2017-11-28T12:35:35.783Z,3.50
2017-11-28T12:38:03.333Z,4.07
2017-11-28T12:40:30.929Z,4.03
2017-11-28T12:43:00.263Z,3.40
2017-11-28T12:45:27.829Z,3.50
2017-11-28T12:47:55.452Z,3.10
2017-11-28T12:50:22.915Z,3.43
2017-11-28T12:53:03.265Z,3.50
2017-11-28T12:55:30.844Z,5.15
2017-11-28T12:57:58.267Z,4.10
2017-11-28T13:00:26.377Z,3.25
2017-11-28T13:02:55.326Z,3.90
2017-11-28T13:05:27.082Z,4.13
2017-11-28T13:07:54.485Z,3.75
2017-11-28T13:10:22.191Z,3.60
2017-11-28T13:12:51.260Z,5.50
2017-11-28T13:15:19.511Z,3.90
2017-11-28T13:17:48.562Z,5.20
2017-11-28T13:20:17.082Z,3.50
2017-11-28T13:22:44.971Z,3.47
2017-11-28T13:25:14.604Z,4.10
2017-11-28T13:27:42.095Z,4.30
2017-11-28T13:30:09.852Z,4.13
2017-11-28T13:32:37.315Z,8.47
2017-11-28T13:35:06.308Z,3.80
2017-11-28T13:37:33.914Z,5.23
2017-11-28T13:40:01.447Z,4.55
2017-11-28T13:42:28.942Z,4.50
2017-11-28T13:44:56.456Z,3.83
2017-11-28T13:47:24.205Z,3.97
2017-11-28T13:49:51.844Z,4.55
2017-11-28T13:52:19.401Z,4.70
2017-11-28T13:54:47.023Z,3.50
2017-11-28T13:57:16.125Z,4.90
2017-11-28T13:59:43.753Z,4.93
2017-11-28T14:02:13.681Z,5.80
2017-11-28T14:04:41.986Z,4.13
2017-11-28T14:07:09.657Z,3.65
2017-11-28T14:09:37.127Z,4.00
2017-11-28T14:12:04.608Z,4.63
2017-11-28T14:14:32.279Z,4.13
2017-11-28T14:16:59.775Z,3.80
2017-11-28T14:19:27.940Z,4.77
2017-11-28T14:21:55.847Z,3.67
2017-11-28T14:24:23.247Z,3.40
2017-11-28T14:26:51.398Z,3.60
2017-11-28T14:29:19.027Z,3.55
2017-11-28T14:31:47.383Z,4.05
2017-11-28T14:34:14.870Z,3.90
2017-11-28T14:36:42.651Z,5.33
2017-11-28T14:39:10.147Z,4.30
2017-11-28T14:41:37.857Z,4.90
2017-11-28T14:44:05.855Z,4.20
2017-11-28T14:46:33.698Z,6.35
